Time;durP1;ratioP1;P1;durP2;ratioP2;P2;SDS_P1;SDS_P2;PMS_P1;PMS_P2;Temp;Humidity;BMP_temperature;BMP_pressure;BME280_temperature;BME280_humidity;BME280_pressure;Samples;Min_cycle;Max_cycle;Signal;HPM_P1;HPM_P2
2021/10/23 00:01:48;;;;;;;3.85;2.58;;;;;;;;;;4980877;28;20197;-74
2021/10/23 00:04:15;;;;;;;3.47;2.53;;;;;;;;;;4989214;28;20202;-74
2021/10/23 00:06:42;;;;;;;3.55;2.20;;;;;;;;;;4994148;28;20209;-74
2021/10/23 00:09:09;;;;;;;2.80;2.50;;;;;;;;;;4980455;28;20261;-74
2021/10/23 00:11:36;;;;;;;6.25;2.53;;;;;;;;;;4982182;28;20214;-74
2021/10/23 00:14:04;;;;;;;4.95;2.70;;;;;;;;;;4991890;28;20213;-74
2021/10/23 00:16:31;;;;;;;5.10;2.63;;;;;;;;;;4992777;28;20197;-74
2021/10/23 00:18:58;;;;;;;3.67;2.60;;;;;;;;;;4989530;28;20201;-75
2021/10/23 00:21:25;;;;;;;5.10;3.03;;;;;;;;;;4992330;28;20554;-75
2021/10/23 00:23:52;;;;;;;3.97;2.92;;;;;;;;;;4978660;28;20206;-75
2021/10/23 00:26:19;;;;;;;4.18;2.38;;;;;;;;;;4993159;28;20616;-75
2021/10/23 00:28:46;;;;;;;4.60;2.80;;;;;;;;;;4991697;28;20205;-75
2021/10/23 00:31:15;;;;;;;4.15;2.80;;;;;;;;;;4985724;28;20221;-75
2021/10/23 00:33:42;;;;;;;9.32;3.67;;;;;;;;;;4973420;28;20198;-75
2021/10/23 00:36:09;;;;;;;6.65;3.65;;;;;;;;;;4985556;28;20204;-75
2021/10/23 00:38:36;;;;;;;4.15;2.83;;;;;;;;;;4992738;28;20205;-75
2021/10/23 00:41:03;;;;;;;6.47;4.60;;;;;;;;;;4988417;28;21115;-75
2021/10/23 00:43:30;;;;;;;5.88;3.92;;;;;;;;;;4990042;28;20202;-75
2021/10/23 00:45:57;;;;;;;5.85;3.72;;;;;;;;;;4987117;28;20616;-76
2021/10/23 00:48:26;;;;;;;6.10;3.25;;;;;;;;;;4991217;28;20201;-75
2021/10/23 00:50:53;;;;;;;4.30;3.75;;;;;;;;;;4988023;28;20198;-76
2021/10/23 00:53:21;;;;;;;4.38;3.40;;;;;;;;;;4989379;28;20198;-75
2021/10/23 00:55:48;;;;;;;6.38;4.45;;;;;;;;;;4981756;28;20221;-75
2021/10/23 00:58:15;;;;;;;4.20;3.63;;;;;;;;;;4974006;28;20193;-75
2021/10/23 01:00:42;;;;;;;5.90;3.70;;;;;;;;;;4989116;28;20237;-76
2021/10/23 01:03:10;;;;;;;6.63;3.40;;;;;;;;;;4990764;28;20193;-76
2021/10/23 01:05:38;;;;;;;5.35;3.78;;;;;;;;;;4990676;28;20200;-75
2021/10/23 01:08:05;;;;;;;9.80;4.00;;;;;;;;;;4976461;28;20209;-75
2021/10/23 01:10:32;;;;;;;4.95;3.40;;;;;;;;;;4973588;28;20202;-75
2021/10/23 01:12:59;;;;;;;5.57;3.72;;;;;;;;;;4975414;28;20218;-75
2021/10/23 01:15:27;;;;;;;3.30;2.97;;;;;;;;;;4986314;28;20280;-75
2021/10/23 01:17:55;;;;;;;7.07;3.65;;;;;;;;;;4989682;28;20256;-75
2021/10/23 01:20:24;;;;;;;5.00;3.38;;;;;;;;;;4985396;28;20205;-75
2021/10/23 01:22:52;;;;;;;4.45;3.20;;;;;;;;;;4976308;28;20716;-75
2021/10/23 01:25:20;;;;;;;4.03;3.40;;;;;;;;;;4950353;28;1036376;-75
2021/10/23 01:27:47;;;;;;;6.20;3.50;;;;;;;;;;4991676;28;20190;-75
2021/10/23 01:30:15;;;;;;;6.18;3.28;;;;;;;;;;4991411;28;20221;-75
2021/10/23 01:32:42;;;;;;;4.82;4.25;;;;;;;;;;4987209;28;20221;-75
2021/10/23 01:35:09;;;;;;;7.63;4.00;;;;;;;;;;4991921;28;20197;-75
2021/10/23 01:37:39;;;;;;;3.95;3.25;;;;;;;;;;4983920;28;20209;-75
2021/10/23 01:40:07;;;;;;;5.35;3.28;;;;;;;;;;4987138;28;20205;-75
2021/10/23 01:42:35;;;;;;;3.80;3.40;;;;;;;;;;4992272;28;20491;-75
2021/10/23 01:45:02;;;;;;;5.38;3.60;;;;;;;;;;4991850;28;20201;-75
2021/10/23 01:47:29;;;;;;;7.18;4.00;;;;;;;;;;4981301;28;20202;-75
2021/10/23 01:49:56;;;;;;;5.60;4.20;;;;;;;;;;4987006;28;20205;-76
2021/10/23 01:52:23;;;;;;;6.18;4.20;;;;;;;;;;4992351;28;20608;-75
2021/10/23 01:54:51;;;;;;;3.75;3.25;;;;;;;;;;4988194;28;20198;-76
2021/10/23 01:57:19;;;;;;;8.55;4.57;;;;;;;;;;4993306;28;20597;-75
2021/10/23 01:59:46;;;;;;;10.02;5.38;;;;;;;;;;4985189;28;20205;-75
2021/10/23 02:02:13;;;;;;;6.28;4.65;;;;;;;;;;4989908;28;20194;-76
2021/10/23 02:04:40;;;;;;;4.72;3.90;;;;;;;;;;4991253;28;20656;-76
2021/10/23 02:07:07;;;;;;;8.77;4.93;;;;;;;;;;4980470;28;20204;-76
2021/10/23 02:09:34;;;;;;;5.32;4.80;;;;;;;;;;4974126;28;20201;-75
2021/10/23 02:12:02;;;;;;;7.15;5.20;;;;;;;;;;4976341;28;20218;-76
2021/10/23 02:14:29;;;;;;;6.97;5.20;;;;;;;;;;4988306;28;20461;-75
2021/10/23 02:16:56;;;;;;;10.15;6.22;;;;;;;;;;4990947;28;20201;-75
2021/10/23 02:19:23;;;;;;;7.55;5.45;;;;;;;;;;4986878;28;20216;-75
2021/10/23 02:21:50;;;;;;;14.38;7.75;;;;;;;;;;4992122;28;20209;-73
2021/10/23 02:24:17;;;;;;;10.65;5.80;;;;;;;;;;4987000;28;21495;-73
2021/10/23 02:26:45;;;;;;;9.45;6.40;;;;;;;;;;4991854;28;20211;-72
2021/10/23 02:29:13;;;;;;;9.43;6.25;;;;;;;;;;4986463;28;20477;-72
2021/10/23 02:31:40;;;;;;;9.43;6.63;;;;;;;;;;4986161;28;20214;-74
2021/10/23 02:34:07;;;;;;;8.95;6.40;;;;;;;;;;4978634;28;20207;-72
2021/10/23 02:36:34;;;;;;;11.25;7.63;;;;;;;;;;4978420;28;21745;-73
2021/10/23 02:39:01;;;;;;;9.95;6.78;;;;;;;;;;4981368;28;20194;-72
2021/10/23 02:41:28;;;;;;;9.13;7.35;;;;;;;;;;4992237;28;20202;-73
2021/10/23 02:43:56;;;;;;;10.35;7.15;;;;;;;;;;4987541;28;20217;-73
2021/10/23 02:46:24;;;;;;;16.35;9.27;;;;;;;;;;4973551;28;20206;-72
2021/10/23 02:48:51;;;;;;;10.63;7.82;;;;;;;;;;4990877;28;20208;-72
2021/10/23 02:51:18;;;;;;;12.25;8.80;;;;;;;;;;4991752;28;20201;-72
2021/10/23 02:53:45;;;;;;;13.90;8.55;;;;;;;;;;4989531;28;20222;-73
2021/10/23 02:56:12;;;;;;;11.55;8.88;;;;;;;;;;4984826;28;20201;-72
2021/10/23 02:58:39;;;;;;;14.50;8.63;;;;;;;;;;4986704;28;20202;-72
2021/10/23 03:01:06;;;;;;;12.52;9.20;;;;;;;;;;4983567;28;20770;-72
2021/10/23 03:03:35;;;;;;;11.15;8.25;;;;;;;;;;4990558;28;20190;-73
2021/10/23 03:06:02;;;;;;;12.98;10.27;;;;;;;;;;4991637;28;20201;-72
2021/10/23 03:08:29;;;;;;;13.20;9.55;;;;;;;;;;4979641;28;20202;-74
2021/10/23 03:10:56;;;;;;;10.90;7.70;;;;;;;;;;4989917;28;20232;-73
2021/10/23 03:13:23;;;;;;;13.63;8.95;;;;;;;;;;4990990;28;20592;-73
2021/10/23 03:15:53;;;;;;;14.52;8.10;;;;;;;;;;4993995;28;20201;-73
2021/10/23 03:18:20;;;;;;;16.27;9.23;;;;;;;;;;4989193;28;20198;-73
2021/10/23 03:20:48;;;;;;;12.40;9.57;;;;;;;;;;4991909;28;20202;-72
2021/10/23 03:23:16;;;;;;;12.13;9.02;;;;;;;;;;4987434;28;20221;-73
2021/10/23 03:25:43;;;;;;;10.85;8.60;;;;;;;;;;4981974;28;20566;-72
2021/10/23 03:28:11;;;;;;;11.82;8.90;;;;;;;;;;4993699;28;20198;-72
2021/10/23 03:30:38;;;;;;;13.15;9.48;;;;;;;;;;4984689;28;20248;-73
2021/10/23 03:33:05;;;;;;;11.20;7.88;;;;;;;;;;4984373;28;20218;-72
2021/10/23 03:35:32;;;;;;;19.05;10.27;;;;;;;;;;4993874;28;20279;-71
2021/10/23 03:38:01;;;;;;;12.93;9.00;;;;;;;;;;4988309;28;20605;-72
2021/10/23 03:40:28;;;;;;;19.20;10.63;;;;;;;;;;4994538;28;20201;-73
2021/10/23 03:42:55;;;;;;;12.95;9.98;;;;;;;;;;4986617;28;20190;-72
2021/10/23 03:45:22;;;;;;;14.60;9.25;;;;;;;;;;4981925;28;20625;-73
2021/10/23 03:47:49;;;;;;;14.50;8.68;;;;;;;;;;4975464;28;20213;-72
2021/10/23 03:50:16;;;;;;;14.80;9.30;;;;;;;;;;4982128;28;20194;-73
2021/10/23 03:52:43;;;;;;;14.88;9.65;;;;;;;;;;4975302;28;20606;-72
2021/10/23 03:55:11;;;;;;;11.52;8.50;;;;;;;;;;4990006;28;20230;-73
2021/10/23 03:57:40;;;;;;;18.40;10.68;;;;;;;;;;4994065;28;20612;-74
2021/10/23 04:00:07;;;;;;;11.82;8.90;;;;;;;;;;4975932;28;20716;-73
2021/10/23 04:02:34;;;;;;;14.63;10.50;;;;;;;;;;4983763;28;20608;-73
2021/10/23 04:05:02;;;;;;;12.43;10.02;;;;;;;;;;4990769;28;20249;-73
2021/10/23 04:07:29;;;;;;;15.50;10.15;;;;;;;;;;4993699;28;20202;-73
2021/10/23 04:09:56;;;;;;;16.58;10.35;;;;;;;;;;4991013;28;20201;-72
2021/10/23 04:12:24;;;;;;;15.73;10.27;;;;;;;;;;4989409;28;20734;-73
2021/10/23 04:14:53;;;;;;;14.20;10.80;;;;;;;;;;4989014;28;20201;-72
2021/10/23 04:17:20;;;;;;;14.73;11.07;;;;;;;;;;4993319;28;20600;-72
2021/10/23 04:19:47;;;;;;;17.40;11.52;;;;;;;;;;4990427;28;20229;-72
2021/10/23 04:22:14;;;;;;;16.38;11.73;;;;;;;;;;4981874;28;20202;-72
2021/10/23 04:24:41;;;;;;;15.43;9.20;;;;;;;;;;4988933;28;20201;-73
2021/10/23 04:27:08;;;;;;;14.48;10.88;;;;;;;;;;4993978;28;20194;-72
2021/10/23 04:29:36;;;;;;;13.50;10.48;;;;;;;;;;4989311;28;20202;-73
2021/10/23 04:32:04;;;;;;;14.13;10.30;;;;;;;;;;4981367;28;20244;-73
2021/10/23 04:34:31;;;;;;;12.50;9.20;;;;;;;;;;4992070;28;20238;-73
2021/10/23 04:36:58;;;;;;;18.05;10.48;;;;;;;;;;4986829;28;20194;-73
2021/10/23 04:39:25;;;;;;;15.02;10.10;;;;;;;;;;4983450;28;20202;-72
2021/10/23 04:41:52;;;;;;;14.35;11.27;;;;;;;;;;4989572;28;20190;-73
2021/10/23 04:44:19;;;;;;;15.23;10.75;;;;;;;;;;4989706;28;20689;-72
2021/10/23 04:46:47;;;;;;;15.98;10.48;;;;;;;;;;4977009;28;20198;-73
2021/10/23 04:49:14;;;;;;;14.73;10.75;;;;;;;;;;4990181;28;20260;-72
2021/10/23 04:51:41;;;;;;;15.90;10.57;;;;;;;;;;4991686;28;20232;-74
2021/10/23 04:54:09;;;;;;;14.85;10.18;;;;;;;;;;4985639;28;20629;-72
2021/10/23 04:56:36;;;;;;;14.55;9.90;;;;;;;;;;4973727;28;20210;-73
2021/10/23 04:59:03;;;;;;;12.63;10.95;;;;;;;;;;4991157;28;20209;-73
2021/10/23 05:01:30;;;;;;;14.95;10.07;;;;;;;;;;4984356;28;20247;-73
2021/10/23 05:03:58;;;;;;;16.48;9.82;;;;;;;;;;4989209;28;20202;-72
2021/10/23 05:06:25;;;;;;;12.40;9.30;;;;;;;;;;4984730;28;20547;-72
2021/10/23 05:08:52;;;;;;;16.38;10.13;;;;;;;;;;4986872;28;20256;-74
2021/10/23 05:11:19;;;;;;;14.45;10.18;;;;;;;;;;4988646;28;20276;-73
2021/10/23 05:13:46;;;;;;;12.73;9.95;;;;;;;;;;4992804;28;20217;-73
2021/10/23 05:16:13;;;;;;;17.25;10.90;;;;;;;;;;4987093;28;20201;-72
2021/10/23 05:18:40;;;;;;;13.18;9.48;;;;;;;;;;4992048;28;20198;-74
2021/10/23 05:21:09;;;;;;;14.65;10.27;;;;;;;;;;4992069;28;20230;-73
2021/10/23 05:23:36;;;;;;;19.67;11.15;;;;;;;;;;4984424;28;20228;-73
2021/10/23 05:26:03;;;;;;;13.80;8.18;;;;;;;;;;4975513;28;20618;-74
2021/10/23 05:28:30;;;;;;;18.58;12.82;;;;;;;;;;4990567;28;20204;-73
2021/10/23 05:30:57;;;;;;;14.18;8.60;;;;;;;;;;4989995;28;20232;-73
2021/10/23 05:33:24;;;;;;;12.52;9.13;;;;;;;;;;4990247;28;20344;-73
2021/10/23 05:35:51;;;;;;;13.25;9.95;;;;;;;;;;4992175;28;20193;-73
2021/10/23 05:38:19;;;;;;;12.07;9.45;;;;;;;;;;4990530;28;20193;-74
2021/10/23 05:40:47;;;;;;;16.42;10.77;;;;;;;;;;4984764;28;20209;-73
2021/10/23 05:43:14;;;;;;;16.25;10.73;;;;;;;;;;4980799;28;20193;-72
2021/10/23 05:45:41;;;;;;;16.35;9.63;;;;;;;;;;4987045;28;20620;-72
2021/10/23 05:48:08;;;;;;;13.20;9.10;;;;;;;;;;4991380;28;20204;-73
2021/10/23 05:50:35;;;;;;;17.77;10.35;;;;;;;;;;4992268;28;20205;-73
2021/10/23 05:53:02;;;;;;;11.05;9.10;;;;;;;;;;4991136;28;20268;-72
2021/10/23 05:55:30;;;;;;;15.63;10.23;;;;;;;;;;4982338;28;20659;-75
2021/10/23 05:57:57;;;;;;;13.30;8.85;;;;;;;;;;4991776;28;20683;-74
2021/10/23 06:00:24;;;;;;;13.57;9.50;;;;;;;;;;4987559;28;20225;-74
2021/10/23 06:02:51;;;;;;;14.77;10.32;;;;;;;;;;4990701;28;20193;-74
2021/10/23 06:05:18;;;;;;;12.43;8.88;;;;;;;;;;4990583;28;20209;-73
2021/10/23 06:07:45;;;;;;;12.73;9.45;;;;;;;;;;4991905;28;20200;-73
2021/10/23 06:10:14;;;;;;;16.27;11.32;;;;;;;;;;4974646;28;20205;-73
2021/10/23 06:12:42;;;;;;;17.35;10.48;;;;;;;;;;4973276;28;20209;-73
2021/10/23 06:15:10;;;;;;;16.83;10.77;;;;;;;;;;4990920;28;20212;-74
2021/10/23 06:17:37;;;;;;;17.08;11.52;;;;;;;;;;4991581;28;20200;-73
2021/10/23 06:20:06;;;;;;;17.70;10.38;;;;;;;;;;4993402;28;20628;-73
2021/10/23 06:22:33;;;;;;;17.30;11.57;;;;;;;;;;4987019;28;20198;-72
2021/10/23 06:25:00;;;;;;;17.98;9.95;;;;;;;;;;4985347;28;20206;-73
2021/10/23 06:27:27;;;;;;;13.95;10.55;;;;;;;;;;4982913;28;20570;-74
2021/10/23 06:29:55;;;;;;;20.13;11.27;;;;;;;;;;4974581;28;20221;-74
2021/10/23 06:32:22;;;;;;;17.77;11.07;;;;;;;;;;4987001;28;20198;-74
2021/10/23 06:34:49;;;;;;;15.75;10.50;;;;;;;;;;4992118;28;20233;-75
2021/10/23 06:37:18;;;;;;;14.82;10.52;;;;;;;;;;4990697;28;20193;-74
2021/10/23 06:39:46;;;;;;;15.68;11.13;;;;;;;;;;4991043;28;20575;-75
2021/10/23 06:42:13;;;;;;;23.25;13.73;;;;;;;;;;4989289;28;20288;-74
2021/10/23 06:44:40;;;;;;;18.52;11.20;;;;;;;;;;4988391;28;20686;-75
2021/10/23 06:47:08;;;;;;;17.88;12.73;;;;;;;;;;4981441;28;20201;-74
2021/10/23 06:49:35;;;;;;;21.25;12.90;;;;;;;;;;4990840;28;20260;-75
2021/10/23 06:52:02;;;;;;;24.15;12.98;;;;;;;;;;4994299;28;20466;-75
2021/10/23 06:54:29;;;;;;;19.75;11.70;;;;;;;;;;4993579;28;20309;-75
2021/10/23 06:56:56;;;;;;;23.02;12.82;;;;;;;;;;4994835;28;20197;-75
2021/10/23 06:59:23;;;;;;;21.05;11.52;;;;;;;;;;4992176;28;20207;-75
2021/10/23 07:01:50;;;;;;;20.77;13.90;;;;;;;;;;4991459;28;20209;-75
2021/10/23 07:04:19;;;;;;;21.48;12.95;;;;;;;;;;4986766;28;20191;-75
2021/10/23 07:06:46;;;;;;;22.55;13.60;;;;;;;;;;4980299;28;20476;-75
2021/10/23 07:09:13;;;;;;;25.63;14.68;;;;;;;;;;4991948;28;20572;-75
2021/10/23 07:11:40;;;;;;;24.80;15.38;;;;;;;;;;4991874;28;20205;-75
2021/10/23 07:14:07;;;;;;;21.90;14.48;;;;;;;;;;4990264;28;20217;-75
2021/10/23 07:16:34;;;;;;;25.40;15.23;;;;;;;;;;4993406;28;20225;-74
2021/10/23 07:19:02;;;;;;;25.77;14.73;;;;;;;;;;4993836;28;20197;-75
2021/10/23 07:21:30;;;;;;;21.02;12.35;;;;;;;;;;4994590;28;21125;-75
2021/10/23 07:23:59;;;;;;;23.25;14.77;;;;;;;;;;4992211;28;20202;-75
2021/10/23 07:26:26;;;;;;;22.50;14.63;;;;;;;;;;4993862;28;20212;-75
2021/10/23 07:28:53;;;;;;;22.65;14.27;;;;;;;;;;4993696;28;20252;-75
2021/10/23 07:31:20;;;;;;;23.90;15.80;;;;;;;;;;4992648;28;20240;-76
2021/10/23 07:33:48;;;;;;;27.20;15.40;;;;;;;;;;4991607;28;20272;-75
2021/10/23 07:36:17;;;;;;;33.03;17.58;;;;;;;;;;4992704;28;20212;-75
2021/10/23 07:38:45;;;;;;;22.20;16.42;;;;;;;;;;4992315;28;20194;-74
2021/10/23 07:41:12;;;;;;;34.50;20.92;;;;;;;;;;4991909;28;20193;-75
2021/10/23 07:43:39;;;;;;;27.92;17.77;;;;;;;;;;4993343;28;20204;-76
2021/10/23 07:46:06;;;;;;;43.25;23.42;;;;;;;;;;4993794;28;20198;-75
2021/10/23 07:48:35;;;;;;;34.58;20.88;;;;;;;;;;4993600;28;20189;-76
2021/10/23 07:51:03;;;;;;;31.25;20.00;;;;;;;;;;4993559;28;20669;-76
2021/10/23 07:53:30;;;;;;;36.58;19.70;;;;;;;;;;4992488;28;20232;-76
2021/10/23 07:55:59;;;;;;;48.67;26.27;;;;;;;;;;4991314;28;20194;-75
2021/10/23 07:58:26;;;;;;;34.05;21.80;;;;;;;;;;4999522;28;20209;-75
2021/10/23 08:00:53;;;;;;;36.63;20.88;;;;;;;;;;4990004;28;20198;-74
2021/10/23 08:03:20;;;;;;;33.00;21.52;;;;;;;;;;4994227;28;20205;-74
2021/10/23 08:05:47;;;;;;;35.90;22.40;;;;;;;;;;4994152;28;20198;-75
2021/10/23 08:08:14;;;;;;;32.38;19.13;;;;;;;;;;4989845;28;20205;-74
2021/10/23 08:10:41;;;;;;;24.90;17.52;;;;;;;;;;4994526;28;20604;-76
2021/10/23 08:13:10;;;;;;;29.80;18.48;;;;;;;;;;4993077;28;20213;-75
2021/10/23 08:15:37;;;;;;;32.60;18.85;;;;;;;;;;4991270;28;20217;-75
2021/10/23 08:18:04;;;;;;;29.27;19.10;;;;;;;;;;4989282;28;20200;-75
2021/10/23 08:20:32;;;;;;;30.50;18.25;;;;;;;;;;4985318;28;20202;-75
2021/10/23 08:22:59;;;;;;;24.35;16.15;;;;;;;;;;4993471;28;20609;-75
2021/10/23 08:25:26;;;;;;;24.63;15.50;;;;;;;;;;4992518;28;20206;-75
2021/10/23 08:27:53;;;;;;;23.35;15.43;;;;;;;;;;4989287;28;20555;-74
2021/10/23 08:30:21;;;;;;;19.75;14.15;;;;;;;;;;4986825;28;20229;-75
2021/10/23 08:32:49;;;;;;;27.25;16.20;;;;;;;;;;4986032;28;20197;-74
2021/10/23 08:35:16;;;;;;;22.80;14.52;;;;;;;;;;4993712;28;20226;-75
2021/10/23 08:37:44;;;;;;;31.77;19.40;;;;;;;;;;4984556;28;20201;-74
2021/10/23 08:40:12;;;;;;;26.08;18.60;;;;;;;;;;4989583;28;20190;-74
2021/10/23 08:42:40;;;;;;;26.95;18.92;;;;;;;;;;4990010;28;20206;-74
2021/10/23 08:45:07;;;;;;;29.48;17.15;;;;;;;;;;4974657;28;20198;-76
2021/10/23 08:47:37;;;;;;;25.38;15.70;;;;;;;;;;4982206;28;20202;-75
2021/10/23 08:50:05;;;;;;;22.60;16.55;;;;;;;;;;4993323;28;20197;-75
2021/10/23 08:52:32;;;;;;;28.25;17.17;;;;;;;;;;4992200;28;20197;-74
2021/10/23 08:54:59;;;;;;;26.58;16.17;;;;;;;;;;4979983;28;20222;-74
2021/10/23 08:57:28;;;;;;;23.98;16.38;;;;;;;;;;4983445;28;20190;-75
2021/10/23 08:59:55;;;;;;;20.08;15.15;;;;;;;;;;4981440;28;20256;-75
2021/10/23 09:02:22;;;;;;;18.30;13.50;;;;;;;;;;4991874;28;20201;-74
2021/10/23 09:04:51;;;;;;;20.88;13.68;;;;;;;;;;4993174;28;20243;-75
2021/10/23 09:07:18;;;;;;;19.30;14.25;;;;;;;;;;4990831;28;20197;-74
2021/10/23 09:09:46;;;;;;;19.92;14.32;;;;;;;;;;4987500;28;20247;-74
2021/10/23 09:12:20;;;;;;;22.35;15.05;;;;;;;;;;4988220;28;20201;-74
2021/10/23 09:14:48;;;;;;;18.98;13.23;;;;;;;;;;4990699;28;20276;-74
2021/10/23 09:17:17;;;;;;;21.02;13.20;;;;;;;;;;4991295;28;20194;-75
2021/10/23 09:19:45;;;;;;;20.00;12.50;;;;;;;;;;4989739;28;20208;-74
2021/10/23 09:22:24;;;;;;;17.88;12.07;;;;;;;;;;4991510;28;20204;-74
2021/10/23 09:24:52;;;;;;;18.95;12.70;;;;;;;;;;4985413;28;20220;-75
2021/10/23 09:27:20;;;;;;;17.30;11.80;;;;;;;;;;4988962;28;20244;-74
2021/10/23 09:29:53;;;;;;;15.02;11.57;;;;;;;;;;4990250;28;20226;-75
2021/10/23 09:32:21;;;;;;;17.55;12.10;;;;;;;;;;4989966;28;20202;-74
2021/10/23 09:34:48;;;;;;;15.00;11.90;;;;;;;;;;4992595;28;20304;-75
2021/10/23 09:37:15;;;;;;;18.95;12.73;;;;;;;;;;4978572;28;20485;-74
2021/10/23 09:39:43;;;;;;;15.75;12.00;;;;;;;;;;4978727;28;20209;-74
2021/10/23 09:42:12;;;;;;;17.63;11.80;;;;;;;;;;4989238;28;20592;-74
2021/10/23 09:44:40;;;;;;;15.82;11.73;;;;;;;;;;4991071;28;20609;-74
2021/10/23 09:47:08;;;;;;;17.08;13.07;;;;;;;;;;4973442;28;20198;-75
2021/10/23 09:49:35;;;;;;;16.95;10.48;;;;;;;;;;4975847;28;20201;-74
2021/10/23 09:52:07;;;;;;;12.15;9.90;;;;;;;;;;4992327;28;20661;-74
2021/10/23 09:54:34;;;;;;;14.85;10.35;;;;;;;;;;4984469;28;20711;-74
2021/10/23 09:57:08;;;;;;;15.57;11.10;;;;;;;;;;4992101;28;20201;-74
2021/10/23 09:59:38;;;;;;;17.70;10.45;;;;;;;;;;4991018;28;20653;-75
2021/10/23 10:02:05;;;;;;;14.85;11.13;;;;;;;;;;4983541;28;20288;-75
2021/10/23 10:04:34;;;;;;;14.02;11.05;;;;;;;;;;4975778;28;20218;-76
2021/10/23 10:07:02;;;;;;;13.25;9.70;;;;;;;;;;4983477;28;20208;-74
2021/10/23 10:09:29;;;;;;;13.60;9.57;;;;;;;;;;4985617;28;20206;-73
2021/10/23 10:11:57;;;;;;;17.45;10.55;;;;;;;;;;4991853;28;20198;-74
2021/10/23 10:14:27;;;;;;;11.77;8.93;;;;;;;;;;4986847;28;20268;-76
2021/10/23 10:16:55;;;;;;;12.98;9.52;;;;;;;;;;4982712;28;20268;-74
2021/10/23 10:19:23;;;;;;;11.68;8.98;;;;;;;;;;4986910;28;20561;-74
2021/10/23 10:21:50;;;;;;;13.98;8.40;;;;;;;;;;4985091;28;20201;-73
2021/10/23 10:24:19;;;;;;;13.25;9.65;;;;;;;;;;4989564;28;20201;-73
2021/10/23 10:27:00;;;;;;;11.13;8.32;;;;;;;;;;4991945;28;20240;-76
2021/10/23 10:29:38;;;;;;;12.73;8.60;;;;;;;;;;4988059;28;20579;-74
2021/10/23 10:32:18;;;;;;;12.43;8.90;;;;;;;;;;4989137;28;22215;-74
2021/10/23 10:37:54;;;;;;;9.85;7.85;;;;;;;;;;4989251;28;20565;-75
2021/10/23 10:40:55;;;;;;;11.63;9.00;;;;;;;;;;4991701;28;20225;-74
2021/10/23 10:43:21;;;;;;;11.05;7.75;;;;;;;;;;4992512;28;20189;-75
2021/10/23 10:45:55;;;;;;;10.20;8.18;;;;;;;;;;4985201;28;20544;-74
2021/10/23 10:48:23;;;;;;;11.30;7.93;;;;;;;;;;4991819;28;20237;-75
2021/10/23 10:50:50;;;;;;;14.43;8.32;;;;;;;;;;4988170;28;20213;-74
2021/10/23 10:53:18;;;;;;;10.15;7.72;;;;;;;;;;4981789;28;20554;-75
2021/10/23 10:55:46;;;;;;;10.55;7.50;;;;;;;;;;4995602;28;20213;-74
2021/10/23 10:58:14;;;;;;;9.30;7.18;;;;;;;;;;4989708;28;20209;-74
2021/10/23 11:01:12;;;;;;;10.77;8.48;;;;;;;;;;4991351;28;20264;-74
2021/10/23 11:03:43;;;;;;;11.57;8.15;;;;;;;;;;4994419;28;20207;-74
2021/10/23 11:06:37;;;;;;;11.27;7.00;;;;;;;;;;4979723;28;20680;-74
2021/10/23 11:09:30;;;;;;;9.95;6.25;;;;;;;;;;4984845;28;20201;-73
2021/10/23 11:12:29;;;;;;;9.32;6.50;;;;;;;;;;4989965;28;20197;-76
2021/10/23 11:14:56;;;;;;;12.55;7.10;;;;;;;;;;4958916;28;20680;-74
2021/10/23 11:17:24;;;;;;;10.10;6.43;;;;;;;;;;4995016;28;20297;-75
2021/10/23 11:19:53;;;;;;;10.00;6.90;;;;;;;;;;4994848;28;20205;-75
2021/10/23 11:22:21;;;;;;;7.95;5.22;;;;;;;;;;4991534;28;20649;-74
2021/10/23 11:24:50;;;;;;;7.53;4.93;;;;;;;;;;4993552;28;20661;-74
2021/10/23 11:27:33;;;;;;;7.95;6.18;;;;;;;;;;4995172;28;20702;-75
2021/10/23 11:30:07;;;;;;;9.68;6.22;;;;;;;;;;4989308;28;20308;-73
2021/10/23 11:32:35;;;;;;;8.95;5.30;;;;;;;;;;4994311;28;20232;-74
2021/10/23 11:35:03;;;;;;;13.10;4.97;;;;;;;;;;4991505;28;20213;-73
2021/10/23 11:37:30;;;;;;;5.97;4.80;;;;;;;;;;4983949;28;20213;-74
2021/10/23 11:39:58;;;;;;;8.73;5.15;;;;;;;;;;4981898;28;20225;-74
2021/10/23 11:42:25;;;;;;;7.30;4.88;;;;;;;;;;4990121;28;20211;-74
2021/10/23 11:44:52;;;;;;;9.18;4.88;;;;;;;;;;4993109;28;20197;-74
2021/10/23 11:47:24;;;;;;;6.53;5.00;;;;;;;;;;4993836;28;20297;-75
2021/10/23 11:49:52;;;;;;;6.82;4.53;;;;;;;;;;4987354;28;20198;-75
2021/10/23 11:52:21;;;;;;;6.43;4.15;;;;;;;;;;4992432;28;20230;-75
2021/10/23 11:54:49;;;;;;;6.65;5.35;;;;;;;;;;4978430;28;20665;-74
2021/10/23 11:57:31;;;;;;;7.93;4.47;;;;;;;;;;4994354;28;20268;-74
2021/10/23 11:59:58;;;;;;;9.25;4.95;;;;;;;;;;4989597;28;20220;-74
2021/10/23 12:02:37;;;;;;;6.68;3.88;;;;;;;;;;4990416;28;20568;-74
2021/10/23 12:05:17;;;;;;;4.35;3.95;;;;;;;;;;4992776;28;20196;-75
2021/10/23 12:07:45;;;;;;;7.18;3.90;;;;;;;;;;4974870;28;20206;-74
2021/10/23 12:10:12;;;;;;;13.35;4.95;;;;;;;;;;4982618;28;20201;-74
2021/10/23 12:12:40;;;;;;;7.07;4.70;;;;;;;;;;4989454;28;20662;-74
2021/10/23 12:15:25;;;;;;;10.80;4.75;;;;;;;;;;4981735;28;20221;-74
2021/10/23 12:17:58;;;;;;;4.95;3.92;;;;;;;;;;4985958;28;20228;-74
2021/10/23 12:20:25;;;;;;;5.43;3.67;;;;;;;;;;4991988;28;20201;-74
2021/10/23 12:22:53;;;;;;;8.82;4.45;;;;;;;;;;4991780;28;20641;-72
2021/10/23 12:25:20;;;;;;;6.60;4.07;;;;;;;;;;4996692;28;20201;-73
2021/10/23 12:27:59;;;;;;;8.88;3.60;;;;;;;;;;4982275;28;20268;-73
2021/10/23 12:30:26;;;;;;;4.80;4.03;;;;;;;;;;4989401;28;20565;-73
2021/10/23 12:32:53;;;;;;;6.10;3.63;;;;;;;;;;4987100;28;20209;-73
2021/10/23 12:35:21;;;;;;;4.95;3.60;;;;;;;;;;4989278;28;20627;-73
2021/10/23 12:37:51;;;;;;;4.10;3.45;;;;;;;;;;4980609;28;20204;-73
2021/10/23 12:40:24;;;;;;;4.90;3.97;;;;;;;;;;4993316;28;20202;-73
2021/10/23 12:42:52;;;;;;;6.68;3.92;;;;;;;;;;4982099;28;20208;-74
2021/10/23 12:45:20;;;;;;;5.25;3.40;;;;;;;;;;4984468;28;20753;-73
2021/10/23 12:47:47;;;;;;;6.03;4.10;;;;;;;;;;4974914;28;20201;-74
2021/10/23 12:50:15;;;;;;;5.65;3.95;;;;;;;;;;4974050;28;20702;-73
2021/10/23 12:52:43;;;;;;;5.60;3.50;;;;;;;;;;4977059;28;20205;-72
2021/10/23 12:55:12;;;;;;;8.15;3.95;;;;;;;;;;4988172;28;20649;-73
2021/10/23 12:57:40;;;;;;;4.47;2.88;;;;;;;;;;4993128;28;20381;-72
2021/10/23 13:00:08;;;;;;;4.95;3.63;;;;;;;;;;4984790;28;20202;-73
2021/10/23 13:02:35;;;;;;;11.18;3.38;;;;;;;;;;4973387;28;20248;-72
2021/10/23 13:05:02;;;;;;;6.22;2.88;;;;;;;;;;4973598;28;20202;-73
2021/10/23 13:07:29;;;;;;;5.07;2.85;;;;;;;;;;4985030;28;20557;-74
2021/10/23 13:09:56;;;;;;;8.77;3.95;;;;;;;;;;4980812;28;20205;-72
2021/10/23 13:12:23;;;;;;;5.40;3.13;;;;;;;;;;4993073;28;20251;-73
2021/10/23 13:14:52;;;;;;;5.75;2.85;;;;;;;;;;4992382;28;20671;-72
2021/10/23 13:17:19;;;;;;;5.00;3.03;;;;;;;;;;4992562;28;20218;-71
2021/10/23 13:19:46;;;;;;;3.75;3.05;;;;;;;;;;4986009;28;20248;-73
2021/10/23 13:22:13;;;;;;;4.03;3.22;;;;;;;;;;4992406;28;20279;-71
2021/10/23 13:24:41;;;;;;;4.82;3.10;;;;;;;;;;4982532;28;20214;-73
2021/10/23 13:27:08;;;;;;;5.18;3.45;;;;;;;;;;4973313;28;20617;-71
2021/10/23 13:29:35;;;;;;;4.25;3.00;;;;;;;;;;4973511;28;20641;-73
2021/10/23 13:32:03;;;;;;;3.45;3.05;;;;;;;;;;4990487;28;20209;-73
2021/10/23 13:34:30;;;;;;;4.80;2.55;;;;;;;;;;4991809;28;20197;-73
2021/10/23 13:36:57;;;;;;;3.83;2.72;;;;;;;;;;4992751;28;20640;-72
2021/10/23 13:39:24;;;;;;;3.88;2.97;;;;;;;;;;4992256;28;20680;-72
2021/10/23 13:41:52;;;;;;;4.57;3.10;;;;;;;;;;4992624;28;20202;-72
2021/10/23 13:44:19;;;;;;;4.60;2.42;;;;;;;;;;4989875;28;20199;-72
2021/10/23 13:46:46;;;;;;;4.85;2.58;;;;;;;;;;4975896;28;20202;-74
2021/10/23 13:49:15;;;;;;;3.70;2.80;;;;;;;;;;4988283;28;20292;-72
2021/10/23 13:51:42;;;;;;;5.20;3.70;;;;;;;;;;4986264;28;20205;-73
2021/10/23 13:54:09;;;;;;;5.25;3.42;;;;;;;;;;4991456;28;20193;-72
2021/10/23 13:56:36;;;;;;;6.32;3.20;;;;;;;;;;4991878;28;20248;-73
2021/10/23 13:59:03;;;;;;;6.10;2.45;;;;;;;;;;4976706;28;20202;-72
2021/10/23 14:01:30;;;;;;;5.30;2.72;;;;;;;;;;4990151;28;20214;-72
2021/10/23 14:03:57;;;;;;;6.78;2.30;;;;;;;;;;4990034;28;20201;-72
2021/10/23 14:06:25;;;;;;;4.20;2.88;;;;;;;;;;4976439;28;20661;-72
2021/10/23 14:08:52;;;;;;;6.57;2.70;;;;;;;;;;4988850;28;20201;-74
2021/10/23 14:11:19;;;;;;;5.30;3.92;;;;;;;;;;4992217;28;20201;-72
2021/10/23 14:13:46;;;;;;;2.80;2.10;;;;;;;;;;4987068;28;20205;-73
2021/10/23 14:16:14;;;;;;;4.50;2.83;;;;;;;;;;4988221;28;20684;-72
2021/10/23 14:18:41;;;;;;;4.45;2.92;;;;;;;;;;4985997;28;20228;-73
2021/10/23 14:21:10;;;;;;;4.10;2.80;;;;;;;;;;4987092;28;20198;-72
2021/10/23 14:23:38;;;;;;;3.50;2.33;;;;;;;;;;4989997;28;20214;-75
2021/10/23 14:26:05;;;;;;;3.85;2.95;;;;;;;;;;4990841;28;20205;-72
2021/10/23 14:28:41;;;;;;;2.60;2.10;;;;;;;;;;4983572;28;20215;-73
2021/10/23 14:31:10;;;;;;;2.65;1.70;;;;;;;;;;4988422;28;20245;-71
2021/10/23 14:33:37;;;;;;;5.97;2.78;;;;;;;;;;4985595;28;20233;-72
2021/10/23 14:36:04;;;;;;;5.15;2.08;;;;;;;;;;4991641;28;20679;-72
2021/10/23 14:38:32;;;;;;;4.38;2.40;;;;;;;;;;4986756;28;20209;-74
2021/10/23 14:41:00;;;;;;;3.63;2.53;;;;;;;;;;4997041;28;20193;-73